Wayne, NE

1:36 AM CDT on March 29, 2015 (GMT -0500)
Stefan Memorial | | Change Station
CLOSE
Current Station
Airport
Location: Norfolk,
Elevation: 1549 ft
Nearby Weather Stations
Active Advisory: Wind Advisory

Elev 1549 ft 41.99 °N, 97.44 °W | Updated 40 minutes ago

Partly Cloudy
Partly Cloudy
46 °F
Feels Like 38 °F
N
20
Wind Variable Wind from South
Gusts 29 mph

Today
High -- | Low -- °F
--% Chance of Precip.
Yesterday
High -- | Low -- °F
Precip. -- in
7:16 AM 7:50 PM
Waxing Gibbous, 69% visible
Pressure 29.81 in
Visibility 10.0 miles
Clouds Clear
Windchill 38 °F
Dew Point 34 °F
Humidity 63%
Rainfall 0.00 in
Snow Depth Not available.
UV 0 out of 12
Pollen 6.90 out of 12
Air Quality Not available.
Flu Activity Not available.
METAR KOFK 290556Z AUTO 17017G25KT 10SM CLR 08/01 A2979 RMK AO2 PK WND 16031/0517 SLP092 T00780011 10122 20072 401331028 56028

More Conditions Fewer Conditions

Pressure 29.81 in
Visibility 10.0 miles
Clouds Clear
Windchill 38 °F
Dew Point 34 °F
Humidity 63%
Rainfall 0.00 in
Snow Depth Not available.
UV 0 out of 12
Pollen 6.90 out of 12
Air Quality Not available.
Flu Activity Not available.
METAR KOFK 290556Z AUTO 17017G25KT 10SM CLR 08/01 A2979 RMK AO2 PK WND 16031/0517 SLP092 T00780011 10122 20072 401331028 56028

More Conditions Fewer Conditions

10-Day Weather Forecast

Almanac

Astronomy

Mar. 29, 2015 Rise Set
Actual Time
Civil Twilight
Nautical Twilight
Astronomical Twilight
Moon
Length of Visible Light
Length of Day
Tomorrow will be .
, % of the Moon is Illuminated

Today's Extremes

State Highs State Lows

Community

WunderPhotos

Upload Photos

1,809,186 photos uploaded!

WunderBlogs® & News

Nearby

Air Quality

  Air Quality AQ Index Pollutant
Not available.

Snow Depth

Station Depth Elevation

Earthquake Activity

City Distance Mag. Time & Date
Minimum magnitude displayed is 2.5.

Coastal Water Temperatures

Place Temperature

Stations

Nearby Weather Stations

Station Location Temp. Windchill Dew Point Humidity Wind Precip. Elev Updated Type
                   
Wind Advisory
Statement as of 9:10 PM CDT on March 28, 2015

... Wind Advisory remains in effect from 10 am to 4 PM CDT
Sunday...

* timing... winds will increase around mid morning... peaking at
midday and decreasing by mid afternoon.

* Winds... northwest winds of 30 to 35 mph... with gusts of 40 to
50 mph... are anticipated.

Precautionary/preparedness actions...

A Wind Advisory means that sustained wind speeds between 30 to
39 mph or gusts between 45 to 57 mph are expected. Winds this
strong can make driving difficult... especially for high profile
vehicles. Use extra caution.